Time;durP1;ratioP1;P1;durP2;ratioP2;P2;SDS_P1;SDS_P2;PMS_P1;PMS_P2;Temp;Humidity;BMP_temperature;BMP_pressure;BME280_temperature;BME280_humidity;BME280_pressure;Samples;Min_cycle;Max_cycle;Signal;HPM_P1;HPM_P2
2024/04/08 00:00:34;;;;;;;7.32;4.78;;;;;;;;;;6288290;28;20052;-72
2024/04/08 00:03:35;;;;;;;5.78;4.68;;;;;;;;;;6288069;28;20059;-71
2024/04/08 00:06:37;;;;;;;7.95;5.40;;;;;;;;;;6293044;28;20052;-71
2024/04/08 00:09:38;;;;;;;4.75;4.35;;;;;;;;;;6291717;28;20151;-72
2024/04/08 00:12:42;;;;;;;4.78;4.20;;;;;;;;;;6267506;28;20121;-72
2024/04/08 00:15:44;;;;;;;4.13;2.00;;;;;;;;;;6272471;28;20686;-71
2024/04/08 00:18:44;;;;;;;5.90;4.53;;;;;;;;;;6287485;28;20055;-71
2024/04/08 00:21:45;;;;;;;4.30;3.90;;;;;;;;;;6289880;28;20044;-72
2024/04/08 00:24:51;;;;;;;4.20;3.80;;;;;;;;;;6291005;28;20039;-72
2024/04/08 00:27:52;;;;;;;8.07;7.57;;;;;;;;;;6287872;28;20048;-71
2024/04/08 00:31:10;;;;;;;4.55;2.45;;;;;;;;;;6274055;28;20474;-71
2024/04/08 00:34:11;;;;;;;;;;;;;;;;;;6289671;28;20442;-72
2024/04/08 00:37:12;;;;;;;4.43;4.07;;;;;;;;;;6284491;28;19931;-71
2024/04/08 00:40:14;;;;;;;5.53;4.45;;;;;;;;;;6274417;28;20047;-72
2024/04/08 00:43:14;;;;;;;6.25;5.68;;;;;;;;;;6270170;28;20068;-72
2024/04/08 00:46:22;;;;;;;4.07;3.63;;;;;;;;;;6277204;28;20131;-72
2024/04/08 00:49:24;;;;;;;5.65;5.10;;;;;;;;;;6266573;28;20041;-72
2024/04/08 00:52:25;;;;;;;5.18;4.72;;;;;;;;;;6271687;28;20052;-72
2024/04/08 00:55:27;;;;;;;4.72;4.32;;;;;;;;;;6289755;28;20113;-72
2024/04/08 00:58:30;;;;;;;4.00;3.70;;;;;;;;;;6286594;28;20158;-72
2024/04/08 01:01:33;;;;;;;6.22;5.60;;;;;;;;;;6271714;28;20055;-72
2024/04/08 01:04:34;;;;;;;6.57;4.85;;;;;;;;;;6286811;28;20059;-72
2024/04/08 01:07:35;;;;;;;6.55;5.95;;;;;;;;;;6257125;28;20070;-72
2024/04/08 01:10:38;;;;;;;5.93;4.45;;;;;;;;;;6292469;28;20032;-72
2024/04/08 01:13:40;;;;;;;5.60;4.53;;;;;;;;;;6273194;28;20097;-72
2024/04/08 01:16:41;;;;;;;2.67;2.30;;;;;;;;;;6304112;28;20705;-72
2024/04/08 01:19:44;;;;;;;4.40;4.00;;;;;;;;;;6304225;28;20044;-72
2024/04/08 01:22:46;;;;;;;5.03;4.32;;;;;;;;;;6274504;28;20052;-71
2024/04/08 01:25:47;;;;;;;4.68;4.20;;;;;;;;;;6273388;28;20040;-71
2024/04/08 01:28:50;;;;;;;4.78;4.38;;;;;;;;;;6255295;28;20055;-71
2024/04/08 01:31:51;;;;;;;5.30;4.55;;;;;;;;;;6288700;28;20051;-72
2024/04/08 01:34:52;;;;;;;3.28;2.05;;;;;;;;;;6272024;28;20813;-72
2024/04/08 01:37:53;;;;;;;4.75;4.13;;;;;;;;;;6289868;28;20045;-71
2024/04/08 01:40:54;;;;;;;6.20;5.63;;;;;;;;;;6290554;28;20157;-71
2024/04/08 01:43:55;;;;;;;5.82;4.05;;;;;;;;;;6302998;28;20059;-72
2024/04/08 01:46:56;;;;;;;5.20;4.75;;;;;;;;;;6276833;28;20076;-72
2024/04/08 01:49:59;;;;;;;5.75;5.25;;;;;;;;;;6268105;28;20052;-71
2024/04/08 01:53:00;;;;;;;5.55;5.05;;;;;;;;;;6287010;28;20048;-71
2024/04/08 01:56:01;;;;;;;6.07;4.35;;;;;;;;;;6270167;28;20749;-71
2024/04/08 01:59:02;;;;;;;5.53;1.80;;;;;;;;;;6272223;28;20776;-71
2024/04/08 02:02:03;;;;;;;8.68;7.93;;;;;;;;;;6289665;28;20044;-72
2024/04/08 02:05:06;;;;;;;5.05;4.63;;;;;;;;;;6270740;28;20405;-71
2024/04/08 02:08:07;;;;;;;3.22;2.50;;;;;;;;;;6284106;28;20604;-72
2024/04/08 02:11:08;;;;;;;5.82;4.10;;;;;;;;;;6286711;28;20056;-71
2024/04/08 02:14:09;;;;;;;5.65;5.18;;;;;;;;;;6282509;28;20565;-71
2024/04/08 02:17:10;;;;;;;5.28;4.88;;;;;;;;;;6257220;28;20068;-72
2024/04/08 02:20:11;;;;;;;2.83;2.22;;;;;;;;;;6286049;28;20494;-71
2024/04/08 02:23:12;;;;;;;5.43;4.20;;;;;;;;;;6290208;28;20051;-71
2024/04/08 02:26:13;;;;;;;4.82;4.50;;;;;;;;;;6284888;28;20051;-71
2024/04/08 02:29:14;;;;;;;7.90;5.05;;;;;;;;;;6284635;28;20040;-71
2024/04/08 02:32:15;;;;;;;5.25;4.40;;;;;;;;;;6291413;28;20079;-71
2024/04/08 02:35:16;;;;;;;6.75;5.22;;;;;;;;;;6289533;28;20083;-70
2024/04/08 02:38:18;;;;;;;4.18;3.78;;;;;;;;;;6308654;28;20098;-72
2024/04/08 02:41:19;;;;;;;4.97;2.30;;;;;;;;;;6293133;28;20693;-71
2024/04/08 02:44:20;;;;;;;3.97;3.63;;;;;;;;;;6292331;28;20051;-71
2024/04/08 02:47:20;;;;;;;6.00;3.95;;;;;;;;;;6294575;28;20832;-71
2024/04/08 02:50:22;;;;;;;5.40;4.82;;;;;;;;;;6277534;28;20523;-71
2024/04/08 02:53:24;;;;;;;4.22;3.83;;;;;;;;;;6257787;28;20052;-71
2024/04/08 02:56:25;;;;;;;5.35;4.68;;;;;;;;;;6275689;28;20044;-72
2024/04/08 02:59:27;;;;;;;5.88;5.30;;;;;;;;;;6288547;28;20044;-72
2024/04/08 03:02:28;;;;;;;7.55;6.40;;;;;;;;;;6285957;28;20549;-72
2024/04/08 03:05:30;;;;;;;6.45;5.90;;;;;;;;;;6276733;28;20070;-71
2024/04/08 03:08:31;;;;;;;5.32;4.82;;;;;;;;;;6294379;28;20036;-71
2024/04/08 03:11:32;;;;;;;4.07;3.78;;;;;;;;;;6242423;28;20066;-72
2024/04/08 03:14:33;;;;;;;6.88;6.35;;;;;;;;;;6260837;28;20052;-72
2024/04/08 03:17:35;;;;;;;5.43;5.00;;;;;;;;;;6272784;28;20040;-72
2024/04/08 03:20:36;;;;;;;5.47;2.67;;;;;;;;;;6288739;28;20744;-72
2024/04/08 03:23:37;;;;;;;7.80;4.82;;;;;;;;;;6277193;28;20044;-72
2024/04/08 03:26:38;;;;;;;7.22;5.18;;;;;;;;;;6296676;28;20053;-72
2024/04/08 03:29:39;;;;;;;5.57;4.82;;;;;;;;;;6287724;28;20068;-72
2024/04/08 03:32:40;;;;;;;6.80;3.95;;;;;;;;;;6307338;28;20629;-73
2024/04/08 03:35:41;;;;;;;7.03;4.65;;;;;;;;;;6293173;28;20083;-71
2024/04/08 03:38:44;;;;;;;13.05;4.32;;;;;;;;;;6286751;28;20577;-72
2024/04/08 03:41:45;;;;;;;4.43;3.65;;;;;;;;;;6271265;28;20054;-73
2024/04/08 03:44:52;;;;;;;6.28;2.70;;;;;;;;;;6291210;28;21565;-72
2024/04/08 03:47:53;;;;;;;5.18;4.68;;;;;;;;;;6272072;28;20990;-72
2024/04/08 03:50:54;;;;;;;5.35;4.63;;;;;;;;;;6291992;28;20617;-71
2024/04/08 03:53:55;;;;;;;5.15;2.90;;;;;;;;;;6269965;28;20747;-72
2024/04/08 03:56:57;;;;;;;4.53;4.13;;;;;;;;;;6289524;28;20049;-72
2024/04/08 03:59:58;;;;;;;6.57;5.82;;;;;;;;;;6270094;28;20040;-72
2024/04/08 04:02:59;;;;;;;5.35;4.85;;;;;;;;;;6288122;28;20101;-73
2024/04/08 04:06:00;;;;;;;5.85;5.28;;;;;;;;;;6293675;28;20514;-73
2024/04/08 04:09:03;;;;;;;5.95;5.28;;;;;;;;;;6286530;28;20063;-72
2024/04/08 04:12:04;;;;;;;4.00;2.40;;;;;;;;;;6298620;28;20468;-73
2024/04/08 04:15:06;;;;;;;5.40;4.78;;;;;;;;;;6283617;28;20050;-74
2024/04/08 04:18:07;;;;;;;6.95;6.13;;;;;;;;;;6274279;28;20036;-72
2024/04/08 04:21:08;;;;;;;6.45;4.75;;;;;;;;;;6290123;28;20048;-72
2024/04/08 04:24:09;;;;;;;7.97;5.00;;;;;;;;;;6292330;28;20823;-73
2024/04/08 04:27:10;;;;;;;7.32;5.72;;;;;;;;;;6291082;28;20047;-73
2024/04/08 04:30:11;;;;;;;7.55;6.80;;;;;;;;;;6299338;28;20119;-71
2024/04/08 04:33:13;;;;;;;5.20;4.70;;;;;;;;;;6273149;28;20608;-72
2024/04/08 04:36:15;;;;;;;3.47;3.00;;;;;;;;;;6287752;28;20423;-71
2024/04/08 04:39:16;;;;;;;5.70;4.47;;;;;;;;;;6273385;28;20070;-73
2024/04/08 04:42:17;;;;;;;7.95;7.35;;;;;;;;;;6255748;28;20050;-72
2024/04/08 04:45:19;;;;;;;9.38;6.10;;;;;;;;;;6273667;28;20637;-72
2024/04/08 04:48:20;;;;;;;10.60;5.53;;;;;;;;;;6276309;28;20048;-72
2024/04/08 04:51:21;;;;;;;8.57;7.30;;;;;;;;;;6292152;28;20039;-73
2024/04/08 04:54:22;;;;;;;8.85;6.15;;;;;;;;;;6273730;28;20157;-72
2024/04/08 04:57:24;;;;;;;7.68;6.05;;;;;;;;;;6297117;28;20043;-72
2024/04/08 05:00:26;;;;;;;7.15;6.55;;;;;;;;;;6290568;28;20526;-71
2024/04/08 05:03:27;;;;;;;7.85;6.90;;;;;;;;;;6271742;28;20071;-70
2024/04/08 05:06:28;;;;;;;7.45;6.85;;;;;;;;;;6292606;28;20143;-71
2024/04/08 05:09:30;;;;;;;7.60;5.65;;;;;;;;;;6296041;28;20880;-71
2024/04/08 05:12:31;;;;;;;9.82;4.90;;;;;;;;;;6294756;28;20439;-71
2024/04/08 05:15:32;;;;;;;10.70;7.75;;;;;;;;;;6289574;28;20048;-70
2024/04/08 05:18:34;;;;;;;10.02;9.02;;;;;;;;;;6285967;28;20052;-71
2024/04/08 05:21:35;;;;;;;10.20;8.88;;;;;;;;;;6289323;28;20078;-72
2024/04/08 05:24:36;;;;;;;10.65;9.35;;;;;;;;;;6273304;28;20096;-71
2024/04/08 05:27:37;;;;;;;11.95;7.25;;;;;;;;;;6266717;28;20036;-72
2024/04/08 05:30:40;;;;;;;8.68;7.82;;;;;;;;;;6276748;28;20104;-71
2024/04/08 05:33:41;;;;;;;10.75;6.82;;;;;;;;;;6286474;28;20051;-71
2024/04/08 05:36:42;;;;;;;7.03;6.00;;;;;;;;;;6287814;28;20060;-72
2024/04/08 05:39:43;;;;;;;7.30;6.35;;;;;;;;;;6286170;28;20155;-71
2024/04/08 05:42:44;;;;;;;8.48;5.55;;;;;;;;;;6289951;28;20042;-71
2024/04/08 05:45:48;;;;;;;6.30;5.50;;;;;;;;;;6286791;28;20048;-71
2024/04/08 05:48:49;;;;;;;7.93;7.20;;;;;;;;;;6273230;28;20032;-71
2024/04/08 05:51:50;;;;;;;5.55;4.93;;;;;;;;;;6289601;28;20052;-71
2024/04/08 05:54:51;;;;;;;5.63;5.13;;;;;;;;;;6278788;28;20121;-71
2024/04/08 05:57:53;;;;;;;7.57;3.50;;;;;;;;;;6273123;28;20513;-71
2024/04/08 06:00:54;;;;;;;6.15;5.43;;;;;;;;;;6289329;28;20036;-71
2024/04/08 06:03:55;;;;;;;7.75;6.47;;;;;;;;;;6287159;28;20052;-71
2024/04/08 06:06:56;;;;;;;10.60;7.85;;;;;;;;;;6269260;28;20059;-71
2024/04/08 06:09:58;;;;;;;14.68;8.95;;;;;;;;;;6290347;28;20032;-71
2024/04/08 06:12:59;;;;;;;6.43;5.65;;;;;;;;;;6275998;28;20035;-71
2024/04/08 06:16:02;;;;;;;7.45;6.45;;;;;;;;;;6291923;28;20048;-71
2024/04/08 06:19:03;;;;;;;8.77;6.35;;;;;;;;;;6284597;28;20130;-71
2024/04/08 06:22:04;;;;;;;9.10;6.95;;;;;;;;;;6291451;28;20040;-71
2024/04/08 06:25:06;;;;;;;10.43;9.50;;;;;;;;;;6277142;28;20781;-71
2024/04/08 06:28:07;;;;;;;7.63;6.80;;;;;;;;;;6293244;28;20045;-71
2024/04/08 06:31:08;;;;;;;8.20;7.07;;;;;;;;;;6287762;28;20048;-71
2024/04/08 06:34:09;;;;;;;8.13;7.32;;;;;;;;;;6291191;28;20040;-71
2024/04/08 06:37:10;;;;;;;5.95;4.90;;;;;;;;;;6285926;28;20140;-70
2024/04/08 06:40:11;;;;;;;10.52;7.13;;;;;;;;;;6284528;28;20522;-71
2024/04/08 06:43:12;;;;;;;10.10;7.18;;;;;;;;;;6275604;28;20523;-72
2024/04/08 06:46:13;;;;;;;8.73;6.20;;;;;;;;;;6278072;28;20058;-71
2024/04/08 06:49:14;;;;;;;9.80;8.43;;;;;;;;;;6274205;28;20629;-72
2024/04/08 06:52:15;;;;;;;10.07;7.38;;;;;;;;;;6290799;28;20048;-71
2024/04/08 06:55:16;;;;;;;12.35;4.75;;;;;;;;;;6303659;28;20626;-71
2024/04/08 06:58:19;;;;;;;9.55;6.85;;;;;;;;;;6277396;28;20047;-71
2024/04/08 07:01:21;;;;;;;14.23;6.45;;;;;;;;;;6295077;28;20052;-71
2024/04/08 07:04:22;;;;;;;13.57;7.78;;;;;;;;;;6293964;28;20044;-71
2024/04/08 07:07:23;;;;;;;11.00;7.78;;;;;;;;;;6287960;28;20586;-71
2024/04/08 07:10:24;;;;;;;12.15;6.90;;;;;;;;;;6289948;28;20160;-71
2024/04/08 07:13:25;;;;;;;10.68;7.53;;;;;;;;;;6291721;28;20044;-70
2024/04/08 07:16:27;;;;;;;10.23;6.60;;;;;;;;;;6285919;28;20055;-71
2024/04/08 07:19:28;;;;;;;10.85;7.00;;;;;;;;;;6293820;28;20036;-71
2024/04/08 07:22:29;;;;;;;9.15;8.02;;;;;;;;;;6294615;28;20131;-71
2024/04/08 07:25:30;;;;;;;7.60;3.53;;;;;;;;;;6267370;28;20553;-71
2024/04/08 07:28:31;;;;;;;7.95;5.95;;;;;;;;;;6276396;28;20109;-71
2024/04/08 07:31:32;;;;;;;9.60;6.05;;;;;;;;;;6259163;28;20090;-71
2024/04/08 07:34:33;;;;;;;7.43;5.43;;;;;;;;;;6294173;28;20036;-71
2024/04/08 07:37:34;;;;;;;8.90;6.40;;;;;;;;;;6274043;28;20044;-71
2024/04/08 07:40:35;;;;;;;8.68;5.57;;;;;;;;;;6290314;28;20051;-71
2024/04/08 07:43:37;;;;;;;6.85;5.30;;;;;;;;;;6273548;28;20044;-71
2024/04/08 07:48:05;;;;;;;6.13;2.28;;;;;;;;;;6723114;26;20516;-71
2024/04/08 07:51:08;;;;;;;5.93;2.30;;;;;;;;;;6684299;26;20027;-71
2024/04/08 07:54:11;;;;;;;5.97;3.72;;;;;;;;;;6665182;26;20008;-71
2024/04/08 07:57:14;;;;;;;6.55;1.85;;;;;;;;;;6671074;26;20000;-71
2024/04/08 08:00:16;;;;;;;4.03;1.85;;;;;;;;;;6666481;26;20019;-71
2024/04/08 08:03:19;;;;;;;4.28;2.35;;;;;;;;;;6689478;26;20479;-71
2024/04/08 08:06:22;;;;;;;4.32;2.20;;;;;;;;;;6662982;26;20066;-71
2024/04/08 08:09:24;;;;;;;4.25;2.25;;;;;;;;;;6658741;26;20044;-71
2024/04/08 08:12:27;;;;;;;5.93;2.53;;;;;;;;;;6690766;26;20019;-71
2024/04/08 08:15:30;;;;;;;10.00;5.95;;;;;;;;;;6676744;26;20585;-71
2024/04/08 08:18:34;;;;;;;8.57;2.13;;;;;;;;;;6695754;26;20010;-71
2024/04/08 08:21:37;;;;;;;7.65;1.52;;;;;;;;;;6684593;26;20071;-71
2024/04/08 08:24:39;;;;;;;4.25;1.88;;;;;;;;;;6670812;26;20863;-71
2024/04/08 08:27:42;;;;;;;4.63;2.50;;;;;;;;;;6673167;26;20012;-71
2024/04/08 08:30:44;;;;;;;4.88;2.15;;;;;;;;;;6664021;26;20020;-71
2024/04/08 08:33:47;;;;;;;7.38;1.13;;;;;;;;;;6675416;26;20001;-72
2024/04/08 08:36:50;;;;;;;7.93;1.73;;;;;;;;;;6692626;26;20000;-72
2024/04/08 08:39:53;;;;;;;2.90;1.10;;;;;;;;;;6683185;26;20460;-71
2024/04/08 08:42:56;;;;;;;4.35;1.48;;;;;;;;;;6664509;26;20023;-71
2024/04/08 08:46:00;;;;;;;2.97;1.75;;;;;;;;;;6668358;26;20896;-72
2024/04/08 08:49:04;;;;;;;3.40;1.13;;;;;;;;;;6691260;26;20001;-71
2024/04/08 08:52:09;;;;;;;;;;;;;;;;;;6694545;26;20003;-71
2024/04/08 08:55:11;;;;;;;3.50;1.20;;;;;;;;;;6692841;26;19973;-71
2024/04/08 08:58:14;;;;;;;1.63;0.80;;;;;;;;;;6675134;26;20022;-72
2024/04/08 09:01:17;;;;;;;3.22;1.17;;;;;;;;;;6661986;26;20469;-71
2024/04/08 09:04:20;;;;;;;2.88;1.20;;;;;;;;;;6666031;26;20015;-72
2024/04/08 09:07:23;;;;;;;2.78;1.52;;;;;;;;;;6663828;26;20666;-70
2024/04/08 09:10:27;;;;;;;1.98;0.70;;;;;;;;;;6656351;26;20012;-71
2024/04/08 09:13:31;;;;;;;3.33;0.80;;;;;;;;;;6664257;26;20578;-73
2024/04/08 09:16:33;;;;;;;2.15;1.05;;;;;;;;;;6664584;26;20015;-71
2024/04/08 09:19:36;;;;;;;2.75;0.75;;;;;;;;;;6660130;26;20048;-71
2024/04/08 09:22:41;;;;;;;1.98;1.17;;;;;;;;;;6662776;26;20016;-71
2024/04/08 09:25:44;;;;;;;4.03;0.82;;;;;;;;;;6663098;26;20082;-71
2024/04/08 09:28:46;;;;;;;3.55;0.90;;;;;;;;;;6674613;26;20019;-71
2024/04/08 09:31:49;;;;;;;4.18;1.00;;;;;;;;;;6664284;26;19997;-72
2024/04/08 09:34:51;;;;;;;2.05;0.90;;;;;;;;;;6652291;26;20000;-71
2024/04/08 09:37:55;;;;;;;6.40;1.50;;;;;;;;;;6624652;26;20019;-72
2024/04/08 09:40:58;;;;;;;1.70;0.70;;;;;;;;;;6656238;26;20004;-72
2024/04/08 09:44:02;;;;;;;2.95;1.33;;;;;;;;;;6682698;26;20613;-70
2024/04/08 09:47:06;;;;;;;2.25;1.05;;;;;;;;;;6669459;26;20012;-71
2024/04/08 09:50:11;;;;;;;2.53;1.00;;;;;;;;;;6613686;26;19997;-72
2024/04/08 09:53:14;;;;;;;1.90;0.93;;;;;;;;;;6635779;26;20001;-72
2024/04/08 09:56:17;;;;;;;2.10;1.10;;;;;;;;;;6634945;26;20008;-72
2024/04/08 09:59:24;;;;;;;1.20;0.50;;;;;;;;;;6689972;26;20004;-72
2024/04/08 10:02:32;;;;;;;1.52;0.70;;;;;;;;;;6667940;26;20019;-71
2024/04/08 10:05:34;;;;;;;1.63;0.63;;;;;;;;;;6651273;26;20124;-70
2024/04/08 10:08:39;;;;;;;4.03;1.05;;;;;;;;;;6644705;26;20090;-71
2024/04/08 10:11:46;;;;;;;2.95;0.90;;;;;;;;;;6652749;26;20023;-72
2024/04/08 10:14:49;;;;;;;2.80;0.80;;;;;;;;;;6637145;26;20835;-72
2024/04/08 10:17:52;;;;;;;3.45;0.88;;;;;;;;;;6654227;26;20337;-72
2024/04/08 10:20:55;;;;;;;2.08;0.60;;;;;;;;;;6642476;26;19995;-72
2024/04/08 10:23:58;;;;;;;8.32;1.02;;;;;;;;;;6653570;26;20357;-72
2024/04/08 10:27:02;;;;;;;1.88;0.75;;;;;;;;;;6654995;26;20829;-72
2024/04/08 10:30:05;;;;;;;3.05;0.50;;;;;;;;;;6649650;26;20004;-72
2024/04/08 10:33:10;;;;;;;1.92;1.33;;;;;;;;;;6651990;26;20056;-72
2024/04/08 10:36:13;;;;;;;1.75;0.77;;;;;;;;;;6645543;26;20016;-72
2024/04/08 10:39:26;;;;;;;3.13;1.45;;;;;;;;;;6658955;26;20005;-72
2024/04/08 10:42:28;;;;;;;1.85;0.50;;;;;;;;;;6659907;26;20015;-73
2024/04/08 10:45:33;;;;;;;2.65;0.95;;;;;;;;;;6666600;26;20401;-73
2024/04/08 10:48:39;;;;;;;2.60;0.60;;;;;;;;;;6654242;26;20526;-73
2024/04/08 10:51:43;;;;;;;2.00;0.63;;;;;;;;;;6653307;26;20637;-72
2024/04/08 10:54:46;;;;;;;1.23;0.75;;;;;;;;;;6653472;26;20004;-72
2024/04/08 10:57:49;;;;;;;1.50;0.80;;;;;;;;;;6639198;26;20004;-72
2024/04/08 11:00:51;;;;;;;1.83;0.80;;;;;;;;;;6649129;26;20004;-72
2024/04/08 11:03:57;;;;;;;4.30;0.73;;;;;;;;;;6655367;26;20004;-72
2024/04/08 11:06:59;;;;;;;1.63;0.50;;;;;;;;;;6650482;26;20008;-72
2024/04/08 11:10:12;;;;;;;2.20;0.50;;;;;;;;;;6648098;26;20477;-72
2024/04/08 11:13:15;;;;;;;1.90;1.40;;;;;;;;;;6656262;26;20487;-72
2024/04/08 11:16:18;;;;;;;1.83;0.75;;;;;;;;;;6651602;26;20354;-72
2024/04/08 11:19:20;;;;;;;2.03;0.60;;;;;;;;;;6638601;26;20004;-72
2024/04/08 11:22:23;;;;;;;2.00;0.90;;;;;;;;;;6659586;26;20427;-73
2024/04/08 11:25:26;;;;;;;2.78;0.90;;;;;;;;;;6655476;26;20004;-72
2024/04/08 11:28:31;;;;;;;1.60;0.50;;;;;;;;;;6658667;26;20053;-73
2024/04/08 11:31:34;;;;;;;1.77;0.60;;;;;;;;;;6659096;26;20466;-72
2024/04/08 11:34:37;;;;;;;2.92;0.95;;;;;;;;;;6651210;26;19996;-73
2024/04/08 11:37:41;;;;;;;1.90;0.80;;;;;;;;;;6615929;26;20004;-73
2024/04/08 11:40:48;;;;;;;2.47;1.15;;;;;;;;;;6656428;26;20004;-72
2024/04/08 11:43:51;;;;;;;2.85;1.00;;;;;;;;;;6645108;26;20761;-73
2024/04/08 11:46:54;;;;;;;1.45;0.60;;;;;;;;;;6647230;26;20016;-72
2024/04/08 11:49:57;;;;;;;2.78;1.02;;;;;;;;;;6647194;26;20086;-73
2024/04/08 11:52:59;;;;;;;2.97;0.63;;;;;;;;;;6651541;26;20592;-73
2024/04/08 11:56:02;;;;;;;1.73;0.50;;;;;;;;;;6660851;26;20015;-73
2024/04/08 11:59:05;;;;;;;2.67;0.40;;;;;;;;;;6611203;26;20386;-73
2024/04/08 12:02:08;;;;;;;1.92;0.70;;;;;;;;;;6657256;26;20011;-73
2024/04/08 12:05:10;;;;;;;1.77;0.70;;;;;;;;;;6643250;26;20074;-72
2024/04/08 12:08:13;;;;;;;1.98;0.70;;;;;;;;;;6648960;26;20005;-73
2024/04/08 12:11:15;;;;;;;2.25;0.75;;;;;;;;;;6638309;26;20052;-72
2024/04/08 12:14:19;;;;;;;1.95;1.02;;;;;;;;;;6626712;26;20065;-73
2024/04/08 12:17:24;;;;;;;2.50;0.88;;;;;;;;;;6654720;26;20000;-73
2024/04/08 12:20:27;;;;;;;2.47;0.52;;;;;;;;;;6650479;26;20015;-72
2024/04/08 12:23:29;;;;;;;1.17;0.70;;;;;;;;;;6610662;26;20048;-73
2024/04/08 12:26:32;;;;;;;1.38;0.50;;;;;;;;;;6631726;26;20004;-73
2024/04/08 12:29:34;;;;;;;2.50;1.60;;;;;;;;;;6603910;26;20009;-73
2024/04/08 12:32:37;;;;;;;1.33;0.43;;;;;;;;;;6639308;26;20099;-73
2024/04/08 12:35:40;;;;;;;1.88;0.70;;;;;;;;;;6644943;26;20489;-73
2024/04/08 12:38:42;;;;;;;1.65;0.57;;;;;;;;;;6650890;26;20527;-73
2024/04/08 12:41:45;;;;;;;1.10;0.50;;;;;;;;;;6659581;26;20012;-73
2024/04/08 12:44:48;;;;;;;3.45;0.82;;;;;;;;;;6593695;26;20019;-73
2024/04/08 12:47:51;;;;;;;0.75;0.40;;;;;;;;;;6645530;26;20868;-73
2024/04/08 12:50:53;;;;;;;2.92;0.60;;;;;;;;;;6647756;26;20000;-73
2024/04/08 12:53:56;;;;;;;1.15;0.30;;;;;;;;;;6636820;26;20009;-73
2024/04/08 12:57:00;;;;;;;1.35;0.45;;;;;;;;;;6651475;26;20016;-73
2024/04/08 13:00:04;;;;;;;1.67;0.60;;;;;;;;;;6644925;26;20447;-73
2024/04/08 13:03:07;;;;;;;1.67;0.50;;;;;;;;;;6641714;26;20740;-73
2024/04/08 13:06:09;;;;;;;1.63;0.40;;;;;;;;;;6662015;26;19999;-74
2024/04/08 13:09:12;;;;;;;1.52;0.43;;;;;;;;;;6648340;26;20387;-73
2024/04/08 13:12:18;;;;;;;3.05;0.55;;;;;;;;;;6660809;26;20014;-73
2024/04/08 13:15:21;;;;;;;2.03;0.55;;;;;;;;;;6664373;26;20057;-73
2024/04/08 13:18:23;;;;;;;0.82;0.30;;;;;;;;;;6654534;26;20045;-74
2024/04/08 13:21:27;;;;;;;1.27;0.40;;;;;;;;;;6645101;26;20073;-73
2024/04/08 13:24:30;;;;;;;1.50;0.52;;;;;;;;;;6653722;26;20019;-73
2024/04/08 13:27:33;;;;;;;1.25;0.47;;;;;;;;;;6662105;26;20001;-73
2024/04/08 13:30:36;;;;;;;1.98;0.50;;;;;;;;;;6667345;26;20000;-73
2024/04/08 13:33:39;;;;;;;1.85;0.40;;;;;;;;;;6628591;26;20000;-74
2024/04/08 13:36:42;;;;;;;1.45;0.60;;;;;;;;;;6652730;26;20004;-73
2024/04/08 13:39:45;;;;;;;1.35;0.40;;;;;;;;;;6619952;26;20005;-73
2024/04/08 13:42:47;;;;;;;1.33;0.60;;;;;;;;;;6642820;26;20001;-73
2024/04/08 13:45:50;;;;;;;1.95;0.52;;;;;;;;;;6648085;26;20873;-73
2024/04/08 13:48:52;;;;;;;4.07;0.70;;;;;;;;;;6640193;26;20000;-72
2024/04/08 13:51:56;;;;;;;2.58;0.57;;;;;;;;;;6648430;26;20552;-73
2024/04/08 13:54:58;;;;;;;2.78;0.52;;;;;;;;;;6637696;26;20443;-72
2024/04/08 13:58:01;;;;;;;1.33;0.38;;;;;;;;;;6643682;26;20904;-71
2024/04/08 14:01:04;;;;;;;2.15;0.50;;;;;;;;;;6658491;26;20008;-73
2024/04/08 14:04:09;;;;;;;1.23;0.63;;;;;;;;;;6663230;26;20004;-71
2024/04/08 14:07:12;;;;;;;4.50;0.43;;;;;;;;;;6661377;26;20005;-72
2024/04/08 14:10:14;;;;;;;2.15;0.63;;;;;;;;;;6663907;26;20016;-72
2024/04/08 14:13:17;;;;;;;1.42;0.50;;;;;;;;;;6659131;26;20012;-73
2024/04/08 14:16:23;;;;;;;3.05;0.50;;;;;;;;;;6683209;26;21107;-73
2024/04/08 14:19:26;;;;;;;1.08;0.50;;;;;;;;;;6635229;26;19997;-73
2024/04/08 14:22:29;;;;;;;2.08;0.40;;;;;;;;;;6655033;26;20008;-73
2024/04/08 14:25:34;;;;;;;0.95;0.35;;;;;;;;;;6646986;26;20351;-73
2024/04/08 14:28:39;;;;;;;1.80;0.60;;;;;;;;;;6641050;26;20087;-71
2024/04/08 14:31:41;;;;;;;3.90;0.82;;;;;;;;;;6650941;26;20005;-73
2024/04/08 14:34:44;;;;;;;4.80;0.80;;;;;;;;;;6667721;26;21043;-72
2024/04/08 14:37:48;;;;;;;1.60;0.70;;;;;;;;;;6648800;26;20606;-73
2024/04/08 14:41:10;;;;;;;1.83;0.40;;;;;;;;;;6640902;26;20086;-72
2024/04/08 14:44:13;;;;;;;1.63;0.35;;;;;;;;;;6651946;26;20032;-73
2024/04/08 14:47:23;;;;;;;3.03;0.60;;;;;;;;;;6628094;26;20005;-72
2024/04/08 14:50:26;;;;;;;1.30;0.50;;;;;;;;;;6684923;26;20004;-73
2024/04/08 14:53:28;;;;;;;3.42;0.52;;;;;;;;;;6664741;26;20008;-73
2024/04/08 14:56:32;;;;;;;3.47;1.15;;;;;;;;;;6638543;26;20008;-73
2024/04/08 14:59:37;;;;;;;2.75;0.82;;;;;;;;;;6659577;26;20008;-73
2024/04/08 15:02:41;;;;;;;1.63;0.60;;;;;;;;;;6661962;26;20036;-73
2024/04/08 15:05:44;;;;;;;2.60;0.60;;;;;;;;;;6651317;26;20018;-73
2024/04/08 15:08:47;;;;;;;3.13;0.63;;;;;;;;;;6645348;26;20075;-73
2024/04/08 15:11:50;;;;;;;2.85;0.82;;;;;;;;;;6655638;26;20015;-73
2024/04/08 15:14:53;;;;;;;1.40;0.55;;;;;;;;;;6634990;26;20020;-74
2024/04/08 15:17:56;;;;;;;2.00;0.60;;;;;;;;;;6637277;26;20000;-74
2024/04/08 15:20:58;;;;;;;2.70;0.50;;;;;;;;;;6634403;26;20005;-74
2024/04/08 15:24:01;;;;;;;1.48;0.50;;;;;;;;;;6666716;26;19999;-74
2024/04/08 15:27:05;;;;;;;2.80;0.93;;;;;;;;;;6644258;26;20075;-74
2024/04/08 15:30:08;;;;;;;1.63;0.70;;;;;;;;;;6649597;26;20015;-73
2024/04/08 15:33:11;;;;;;;2.95;0.60;;;;;;;;;;6644450;26;20019;-73
2024/04/08 15:36:14;;;;;;;1.83;0.57;;;;;;;;;;6634728;26;20438;-73
2024/04/08 15:39:17;;;;;;;2.30;0.60;;;;;;;;;;6650739;26;20082;-73
2024/04/08 15:42:22;;;;;;;1.40;0.40;;;;;;;;;;6641004;26;20004;-72
2024/04/08 15:45:25;;;;;;;1.85;0.57;;;;;;;;;;6638636;26;20075;-73
2024/04/08 15:48:29;;;;;;;1.38;0.50;;;;;;;;;;6641384;26;20062;-73
2024/04/08 15:51:32;;;;;;;1.30;0.50;;;;;;;;;;6631088;26;20000;-72
2024/04/08 15:54:35;;;;;;;1.05;0.40;;;;;;;;;;6646655;26;20001;-73
2024/04/08 15:57:37;;;;;;;3.60;0.47;;;;;;;;;;6656108;26;21011;-73
2024/04/08 16:00:43;;;;;;;1.88;0.57;;;;;;;;;;6645768;26;20004;-72
2024/04/08 16:03:46;;;;;;;2.38;0.70;;;;;;;;;;6653786;26;20054;-73
2024/04/08 16:06:49;;;;;;;3.10;0.95;;;;;;;;;;6644922;26;20012;-74
2024/04/08 16:09:52;;;;;;;1.55;0.47;;;;;;;;;;6655124;26;20005;-72
2024/04/08 16:12:55;;;;;;;3.15;0.73;;;;;;;;;;6645241;26;20008;-72
2024/04/08 16:15:57;;;;;;;3.42;0.40;;;;;;;;;;6637466;26;20024;-73
2024/04/08 16:19:00;;;;;;;2.17;0.50;;;;;;;;;;6650795;26;20041;-73
2024/04/08 16:22:03;;;;;;;2.08;0.47;;;;;;;;;;6657902;26;20008;-73
2024/04/08 16:25:07;;;;;;;1.70;0.70;;;;;;;;;;6643246;26;20056;-73
2024/04/08 16:28:10;;;;;;;4.07;1.13;;;;;;;;;;6652749;26;20005;-73
2024/04/08 16:31:13;;;;;;;2.47;0.57;;;;;;;;;;6647490;26;20023;-74
2024/04/08 16:34:16;;;;;;;1.02;0.43;;;;;;;;;;6674162;26;20004;-72
2024/04/08 16:37:19;;;;;;;;;;;;;;;;;;6648266;26;20012;-72
2024/04/08 16:40:22;;;;;;;2.28;0.70;;;;;;;;;;6646131;26;20004;-73
2024/04/08 16:43:25;;;;;;;2.90;0.70;;;;;;;;;;6628211;26;20012;-73
2024/04/08 16:46:27;;;;;;;4.88;2.38;;;;;;;;;;6617540;26;20016;-73
2024/04/08 16:49:32;;;;;;;1.98;0.60;;;;;;;;;;6639852;26;20049;-73
2024/04/08 16:52:35;;;;;;;1.45;0.63;;;;;;;;;;6647100;26;20347;-72
2024/04/08 16:55:40;;;;;;;2.72;0.90;;;;;;;;;;6630748;26;20004;-72
2024/04/08 16:58:43;;;;;;;2.38;0.90;;;;;;;;;;6613438;26;20048;-73
2024/04/08 17:01:46;;;;;;;3.67;1.00;;;;;;;;;;6675575;26;20008;-73
2024/04/08 17:04:49;;;;;;;1.73;0.70;;;;;;;;;;6622121;26;20016;-73
2024/04/08 17:07:52;;;;;;;2.17;0.60;;;;;;;;;;6651389;26;20847;-72
2024/04/08 17:11:00;;;;;;;3.60;0.60;;;;;;;;;;6645548;26;20001;-74
2024/04/08 17:14:03;;;;;;;4.78;0.77;;;;;;;;;;6658160;26;20008;-73
2024/04/08 17:17:07;;;;;;;3.55;0.90;;;;;;;;;;6642609;26;20008;-72
2024/04/08 17:20:11;;;;;;;2.30;1.13;;;;;;;;;;6634164;26;20469;-73
2024/04/08 17:23:14;;;;;;;3.00;1.13;;;;;;;;;;6645180;26;20479;-71
2024/04/08 17:26:19;;;;;;;4.03;1.17;;;;;;;;;;6649545;26;20023;-72
2024/04/08 17:29:22;;;;;;;4.78;0.80;;;;;;;;;;6642409;26;20049;-72
2024/04/08 17:32:25;;;;;;;5.25;1.25;;;;;;;;;;6616973;26;20072;-72
2024/04/08 17:35:27;;;;;;;8.05;1.10;;;;;;;;;;6613308;26;20023;-72
2024/04/08 17:38:30;;;;;;;6.38;1.48;;;;;;;;;;6651315;26;20004;-72
2024/04/08 17:41:37;;;;;;;2.70;0.60;;;;;;;;;;6659664;26;20010;-72
2024/04/08 17:44:39;;;;;;;5.18;1.25;;;;;;;;;;6659034;26;20492;-72
2024/04/08 17:47:42;;;;;;;5.70;1.05;;;;;;;;;;6652713;26;20075;-72
2024/04/08 17:50:57;;;;;;;2.03;1.05;;;;;;;;;;6656080;26;20495;-72
2024/04/08 17:54:00;;;;;;;2.47;1.35;;;;;;;;;;6620632;26;20551;-71
2024/04/08 17:57:03;;;;;;;3.35;1.17;;;;;;;;;;6639221;26;20075;-72
2024/04/08 18:00:07;;;;;;;3.47;1.35;;;;;;;;;;6648163;26;20882;-72
2024/04/08 18:03:09;;;;;;;2.42;0.88;;;;;;;;;;6655506;26;20019;-72
2024/04/08 18:06:22;;;;;;;4.18;0.90;;;;;;;;;;6644752;26;20048;-74
2024/04/08 18:09:25;;;;;;;4.05;1.60;;;;;;;;;;6644245;26;20000;-73
2024/04/08 18:12:28;;;;;;;2.65;0.82;;;;;;;;;;6650245;26;20458;-72
2024/04/08 18:15:35;;;;;;;3.03;0.98;;;;;;;;;;6650209;26;20004;-72